createdAt,value
2022-10-29T00:02:22.151Z,60.40
2022-10-29T00:04:49.770Z,65.97
2022-10-29T00:07:17.084Z,64.00
2022-10-29T00:09:44.473Z,68.80
2022-10-29T00:12:12.051Z,60.08
2022-10-29T00:14:39.391Z,64.30
2022-10-29T00:17:06.693Z,59.75
2022-10-29T00:19:34.271Z,62.80
2022-10-29T00:22:01.634Z,59.08
2022-10-29T00:24:28.958Z,64.40
2022-10-29T00:26:56.516Z,66.20
2022-10-29T00:29:23.888Z,65.97
2022-10-29T00:31:51.298Z,70.87
2022-10-29T00:34:18.970Z,75.65
2022-10-29T00:36:46.384Z,70.62
2022-10-29T00:39:15.254Z,76.80
2022-10-29T00:41:42.946Z,76.65
2022-10-29T00:44:20.508Z,74.95
2022-10-29T00:46:48.565Z,87.55
2022-10-29T00:49:15.902Z,89.75
2022-10-29T00:51:43.362Z,101.45
2022-10-29T00:54:11.624Z,93.30
2022-10-29T00:56:41.531Z,79.43
2022-10-29T00:59:08.891Z,80.85
2022-10-29T01:01:36.822Z,70.15
2022-10-29T01:04:04.453Z,70.30
2022-10-29T01:06:31.751Z,70.82
2022-10-29T01:08:59.359Z,71.43
2022-10-29T01:11:38.834Z,71.70
2022-10-29T01:14:15.572Z,71.37
2022-10-29T01:19:34.475Z,63.33
2022-10-29T01:22:17.501Z,56.08
2022-10-29T01:25:20.279Z,61.25
2022-10-29T01:28:02.124Z,57.47
2022-10-29T01:30:51.433Z,55.05
2022-10-29T01:33:37.187Z,59.55
2022-10-29T01:36:07.686Z,56.10
2022-10-29T01:38:36.735Z,55.35
2022-10-29T01:41:13.076Z,51.13
2022-10-29T01:43:52.066Z,46.63
2022-10-29T01:46:21.888Z,51.33
2022-10-29T01:48:51.890Z,47.72
2022-10-29T01:51:23.848Z,49.92
2022-10-29T01:53:51.579Z,49.00
2022-10-29T01:56:18.879Z,50.53
2022-10-29T01:58:49.609Z,54.30
2022-10-29T02:01:54.388Z,48.40
2022-10-29T02:04:33.184Z,50.60
2022-10-29T02:07:07.921Z,44.65
2022-10-29T02:10:03.507Z,49.75
2022-10-29T02:12:33.635Z,54.88
2022-10-29T02:15:08.673Z,55.60
2022-10-29T02:17:36.011Z,64.25
2022-10-29T02:20:08.236Z,52.45
2022-10-29T02:22:35.590Z,58.15
2022-10-29T02:25:02.992Z,71.93
2022-10-29T02:27:30.649Z,52.50
2022-10-29T02:29:57.981Z,65.37
2022-10-29T02:32:25.337Z,52.83
2022-10-29T02:34:52.898Z,69.28
2022-10-29T02:37:20.236Z,74.57
2022-10-29T02:39:47.546Z,67.43
2022-10-29T02:42:15.175Z,55.40
2022-10-29T02:44:42.480Z,94.87
2022-10-29T02:47:09.793Z,87.00
2022-10-29T02:49:37.442Z,61.80
2022-10-29T02:52:04.977Z,83.30
2022-10-29T02:54:32.308Z,66.00
2022-10-29T02:56:59.900Z,59.63
2022-10-29T02:59:27.250Z,56.95
2022-10-29T03:01:54.713Z,49.35
2022-10-29T03:04:22.344Z,53.50
2022-10-29T03:06:49.718Z,74.93
2022-10-29T03:09:17.023Z,61.40
2022-10-29T03:11:44.595Z,60.12
2022-10-29T03:14:12.003Z,67.53
2022-10-29T03:16:39.325Z,66.40
2022-10-29T03:19:06.948Z,51.35
2022-10-29T03:21:34.307Z,64.72
2022-10-29T03:24:01.641Z,58.67
2022-10-29T03:26:29.236Z,56.35
2022-10-29T03:28:56.643Z,53.92
2022-10-29T03:31:23.967Z,56.53
2022-10-29T03:33:51.588Z,48.20
2022-10-29T03:36:18.930Z,51.80
2022-10-29T03:38:46.319Z,45.58
2022-10-29T03:41:13.919Z,44.63
2022-10-29T03:43:41.381Z,44.30
2022-10-29T03:46:08.798Z,49.67
2022-10-29T03:48:36.367Z,52.45
2022-10-29T03:51:07.738Z,48.15
2022-10-29T03:53:35.746Z,49.67
2022-10-29T03:56:03.642Z,46.03
2022-10-29T03:58:30.973Z,44.70
2022-10-29T04:01:02.841Z,49.97
2022-10-29T04:03:31.410Z,47.00
2022-10-29T04:05:59.487Z,48.20
2022-10-29T04:08:26.853Z,47.13
2022-10-29T04:10:54.459Z,44.58
2022-10-29T04:13:21.777Z,46.75
2022-10-29T04:15:49.123Z,46.03
2022-10-29T04:18:16.695Z,43.00
2022-10-29T04:22:31.620Z,50.22
2022-10-29T04:29:06.472Z,37.78
2022-10-29T04:31:33.809Z,39.97
2022-10-29T04:34:01.127Z,35.25
2022-10-29T04:36:28.697Z,41.65
2022-10-29T04:38:56.040Z,41.72
2022-10-29T04:41:23.366Z,41.03
2022-10-29T04:43:50.936Z,53.95
2022-10-29T04:46:18.265Z,63.65
2022-10-29T04:48:45.582Z,71.80
2022-10-29T04:51:25.818Z,57.03
2022-10-29T04:53:53.300Z,56.85
2022-10-29T04:56:20.913Z,49.05
2022-10-29T04:58:51.412Z,80.82
2022-10-29T05:01:19.042Z,63.75
2022-10-29T05:03:46.768Z,68.10
2022-10-29T05:06:14.180Z,82.12
2022-10-29T05:08:41.491Z,70.35
2022-10-29T05:11:09.072Z,65.22
2022-10-29T05:13:36.419Z,57.38
2022-10-29T05:16:03.929Z,69.68
2022-10-29T05:18:31.512Z,59.15
2022-10-29T05:20:58.897Z,59.28
2022-10-29T05:23:26.268Z,81.45
2022-10-29T05:25:55.258Z,54.95
2022-10-29T05:28:22.951Z,54.25
2022-10-29T05:30:51.130Z,51.72
2022-10-29T05:33:20.437Z,53.75
2022-10-29T05:35:47.930Z,46.35
2022-10-29T05:38:15.449Z,40.60
2022-10-29T05:40:45.039Z,45.53
2022-10-29T05:43:13.395Z,47.47
2022-10-29T05:45:40.812Z,53.35
2022-10-29T05:48:08.443Z,42.90
2022-10-29T05:50:35.955Z,42.83
2022-10-29T05:53:04.838Z,41.60
2022-10-29T05:55:33.343Z,42.08
2022-10-29T05:58:02.112Z,33.70
2022-10-29T06:00:31.364Z,38.28
2022-10-29T06:02:59.183Z,38.53
2022-10-29T06:05:26.902Z,35.95
2022-10-29T06:07:56.102Z,34.78
2022-10-29T06:10:24.625Z,34.80
2022-10-29T06:12:51.969Z,33.60
2022-10-29T06:15:19.344Z,30.88
2022-10-29T06:17:47.032Z,24.33
2022-10-29T06:20:15.365Z,27.95
2022-10-29T06:22:42.697Z,34.08
2022-10-29T06:25:10.373Z,29.45
2022-10-29T06:27:37.685Z,31.27
2022-10-29T06:30:05.729Z,26.00
2022-10-29T06:32:33.339Z,29.35
2022-10-29T06:35:00.658Z,29.10
2022-10-29T06:37:29.698Z,29.95
2022-10-29T06:39:57.276Z,25.15
2022-10-29T06:42:24.601Z,27.98
2022-10-29T06:44:51.932Z,32.03
2022-10-29T06:47:19.619Z,28.55
2022-10-29T06:49:46.944Z,31.70
2022-10-29T06:52:14.250Z,30.80
2022-10-29T06:54:41.864Z,36.30
2022-10-29T06:57:09.170Z,28.83
2022-10-29T06:59:36.484Z,38.03
2022-10-29T07:02:04.115Z,68.35
2022-10-29T07:04:31.489Z,47.38
2022-10-29T07:06:58.800Z,42.78
2022-10-29T07:09:26.456Z,37.35
2022-10-29T07:11:53.804Z,34.15
2022-10-29T07:14:21.112Z,35.85
2022-10-29T07:16:48.747Z,36.60
2022-10-29T07:19:16.092Z,39.85
2022-10-29T07:21:43.674Z,37.78
2022-10-29T07:24:11.258Z,39.28
2022-10-29T07:26:38.611Z,42.80
2022-10-29T07:29:05.931Z,51.03
2022-10-29T07:31:33.517Z,49.72
2022-10-29T07:34:00.879Z,45.50
2022-10-29T07:36:30.280Z,46.37
2022-10-29T07:38:57.905Z,46.30
2022-10-29T07:41:25.683Z,39.72
2022-10-29T07:43:53.029Z,48.53
2022-10-29T07:46:20.842Z,44.60
2022-10-29T07:48:48.215Z,50.90
2022-10-29T07:51:15.525Z,48.83
2022-10-29T07:53:43.140Z,51.30
2022-10-29T07:56:10.493Z,98.62
2022-10-29T07:58:37.842Z,66.22
2022-10-29T08:01:05.521Z,51.97
2022-10-29T08:03:33.601Z,53.15
2022-10-29T08:06:00.923Z,46.72
2022-10-29T08:08:28.252Z,51.15
2022-10-29T08:11:00.194Z,54.40
2022-10-29T08:13:27.571Z,57.10
2022-10-29T08:15:54.913Z,47.42
2022-10-29T08:18:22.517Z,53.83
2022-10-29T08:20:49.869Z,49.60
2022-10-29T08:23:17.239Z,60.17
2022-10-29T08:25:44.969Z,51.25
2022-10-29T08:28:13.855Z,52.65
2022-10-29T08:30:41.816Z,56.80
2022-10-29T08:33:09.843Z,54.53
2022-10-29T08:35:37.195Z,56.30
2022-10-29T08:38:04.530Z,62.83
2022-10-29T08:40:44.091Z,54.85
2022-10-29T08:43:35.669Z,89.45
2022-10-29T08:46:03.296Z,81.35
2022-10-29T08:48:33.584Z,65.78
2022-10-29T08:51:20.574Z,58.65
2022-10-29T08:54:17.058Z,60.15
2022-10-29T08:56:40.265Z,53.03
2022-10-29T08:59:16.273Z,50.75
2022-10-29T09:01:44.114Z,54.15
2022-10-29T09:04:22.505Z,50.47
2022-10-29T09:07:17.545Z,51.22
2022-10-29T09:09:55.089Z,55.70
2022-10-29T09:13:00.204Z,53.80
2022-10-29T09:15:56.357Z,52.03
2022-10-29T09:18:30.234Z,47.15
2022-10-29T09:21:13.095Z,49.38
2022-10-29T09:23:56.346Z,41.75
2022-10-29T09:26:58.327Z,40.72
2022-10-29T09:29:59.543Z,42.83
2022-10-29T09:32:32.205Z,45.55
2022-10-29T09:35:14.868Z,38.80
2022-10-29T09:37:44.421Z,39.88
2022-10-29T09:40:31.277Z,34.40
2022-10-29T09:43:00.375Z,44.00
2022-10-29T09:45:36.689Z,37.70
2022-10-29T09:48:15.542Z,38.90
2022-10-29T09:51:01.909Z,42.03
2022-10-29T09:53:29.688Z,50.28
2022-10-29T09:55:56.995Z,48.60
2022-10-29T09:58:26.488Z,62.30
2022-10-29T10:00:54.676Z,56.65
2022-10-29T10:03:37.939Z,44.38
2022-10-29T10:06:07.499Z,57.67
2022-10-29T10:08:35.433Z,50.03
2022-10-29T10:11:04.892Z,43.08
2022-10-29T10:13:36.715Z,43.30
2022-10-29T10:16:06.025Z,39.63
2022-10-29T10:18:33.354Z,33.92
2022-10-29T10:21:03.934Z,37.22
2022-10-29T10:23:52.597Z,40.53
2022-10-29T10:26:28.760Z,39.58
2022-10-29T10:29:15.597Z,35.45
2022-10-29T10:32:03.041Z,36.38
2022-10-29T10:34:33.282Z,38.13
2022-10-29T10:37:09.459Z,39.83
2022-10-29T10:42:24.285Z,42.55
2022-10-29T10:44:59.446Z,39.97
2022-10-29T10:47:28.690Z,43.53
2022-10-29T10:50:32.482Z,47.47
2022-10-29T10:53:17.377Z,43.60
2022-10-29T10:55:57.893Z,50.92
2022-10-29T10:58:31.798Z,44.50
2022-10-29T11:01:09.345Z,49.95
2022-10-29T11:03:45.380Z,49.60
2022-10-29T11:06:21.067Z,51.15
2022-10-29T11:09:18.736Z,47.93
2022-10-29T11:11:59.012Z,51.97
2022-10-29T11:14:30.684Z,49.67
2022-10-29T11:16:59.299Z,51.10
2022-10-29T11:19:40.522Z,48.28
2022-10-29T11:22:26.712Z,44.60
2022-10-29T11:24:56.266Z,49.50
2022-10-29T11:27:47.775Z,42.40
2022-10-29T11:30:16.239Z,41.85
2022-10-29T11:33:05.313Z,43.75
2022-10-29T11:35:58.823Z,41.08
2022-10-29T11:38:33.376Z,45.17
2022-10-29T11:41:28.307Z,43.40
2022-10-29T11:43:55.899Z,44.25
2022-10-29T11:47:04.304Z,45.85
2022-10-29T11:50:16.112Z,49.25
2022-10-29T11:52:46.054Z,51.50
2022-10-29T11:55:52.757Z,45.30
2022-10-29T11:58:24.530Z,51.03
2022-10-29T12:01:12.218Z,46.03
2022-10-29T12:03:42.119Z,44.00
2022-10-29T12:06:20.035Z,47.67
2022-10-29T12:09:23.584Z,50.10
2022-10-29T12:12:23.415Z,46.92
2022-10-29T12:15:18.844Z,50.63
2022-10-29T12:18:09.040Z,45.05
2022-10-29T12:20:59.750Z,47.95
2022-10-29T12:23:41.947Z,40.88
2022-10-29T12:26:23.322Z,44.45
2022-10-29T12:29:00.102Z,42.00
2022-10-29T12:31:47.605Z,41.80
2022-10-29T12:34:26.354Z,43.15
2022-10-29T12:36:56.685Z,40.22
2022-10-29T12:39:30.902Z,43.42
2022-10-29T12:42:01.515Z,40.75
2022-10-29T12:44:44.965Z,40.45
2022-10-29T12:47:38.146Z,43.22
2022-10-29T12:50:44.915Z,41.30
2022-10-29T12:53:24.831Z,42.58
2022-10-29T12:55:52.187Z,43.17
2022-10-29T12:58:57.389Z,46.00
2022-10-29T13:01:43.867Z,44.60
2022-10-29T13:04:27.901Z,36.10
2022-10-29T13:10:24.541Z,35.38
2022-10-29T13:13:05.518Z,32.92
2022-10-29T13:15:43.821Z,36.75
2022-10-29T13:18:23.615Z,37.50
2022-10-29T13:20:52.462Z,36.30
2022-10-29T13:23:22.684Z,32.72
2022-10-29T13:25:59.038Z,60.75
2022-10-29T13:28:26.486Z,41.83
2022-10-29T13:31:13.958Z,37.05
2022-10-29T13:33:41.414Z,37.13
2022-10-29T13:36:18.936Z,35.55
2022-10-29T13:39:04.361Z,35.63
2022-10-29T13:41:42.367Z,37.45
2022-10-29T13:44:11.278Z,35.72
2022-10-29T13:46:53.058Z,33.00
2022-10-29T13:49:23.595Z,35.53
2022-10-29T13:51:56.057Z,35.45
2022-10-29T13:54:37.965Z,33.13
2022-10-29T13:57:31.950Z,34.20
2022-10-29T14:00:03.666Z,33.40
2022-10-29T14:02:55.043Z,32.97
2022-10-29T14:05:32.087Z,30.88
2022-10-29T14:08:28.659Z,30.95
2022-10-29T14:10:59.561Z,32.50
2022-10-29T14:13:30.872Z,33.00
2022-10-29T14:16:07.468Z,32.28
2022-10-29T14:18:41.285Z,54.55
2022-10-29T14:21:36.598Z,32.08
2022-10-29T14:24:04.988Z,32.03
2022-10-29T14:26:34.239Z,33.75
2022-10-29T14:29:31.001Z,37.38
2022-10-29T14:32:13.087Z,35.60
2022-10-29T14:34:45.305Z,33.80
2022-10-29T14:37:18.841Z,39.72
2022-10-29T14:39:57.436Z,34.42
2022-10-29T14:42:33.380Z,31.92
2022-10-29T14:45:03.374Z,37.90
2022-10-29T14:47:34.879Z,39.63
2022-10-29T14:50:03.698Z,38.28
2022-10-29T14:52:34.151Z,37.60
2022-10-29T14:55:03.290Z,41.78
2022-10-29T14:57:32.610Z,51.45
2022-10-29T15:00:04.753Z,52.78
2022-10-29T15:02:38.702Z,48.55
2022-10-29T15:05:28.971Z,42.33
2022-10-29T15:08:11.778Z,40.53
2022-10-29T15:10:48.638Z,41.25
2022-10-29T15:13:28.162Z,39.30
2022-10-29T15:16:16.783Z,37.33
2022-10-29T15:18:50.931Z,40.95
2022-10-29T15:21:22.687Z,38.08
2022-10-29T15:23:52.532Z,36.22
2022-10-29T15:26:23.198Z,42.40
2022-10-29T15:28:52.243Z,42.45
2022-10-29T15:31:40.468Z,49.97
2022-10-29T15:34:09.255Z,48.13
2022-10-29T15:36:46.429Z,43.47
2022-10-29T15:39:22.931Z,47.55
2022-10-29T15:41:50.457Z,40.60
2022-10-29T15:45:07.830Z,47.33
2022-10-29T15:47:36.270Z,45.67
2022-10-29T15:50:09.630Z,51.17
2022-10-29T15:52:38.764Z,50.45
2022-10-29T15:55:27.880Z,50.10
2022-10-29T15:58:10.842Z,49.28
2022-10-29T16:00:38.485Z,47.38
2022-10-29T16:03:23.162Z,50.15
2022-10-29T16:05:53.857Z,53.55
2022-10-29T16:08:29.716Z,51.83
2022-10-29T16:10:57.362Z,59.90
2022-10-29T16:13:25.363Z,55.65
2022-10-29T16:15:52.732Z,53.83
2022-10-29T16:18:20.183Z,50.20
2022-10-29T16:20:48.389Z,50.47
2022-10-29T16:23:15.755Z,49.78
2022-10-29T16:25:43.078Z,58.85
2022-10-29T16:28:10.756Z,56.35
2022-10-29T16:30:41.050Z,52.72
2022-10-29T16:33:10.559Z,49.97
2022-10-29T16:35:38.252Z,45.58
2022-10-29T16:38:05.576Z,59.20
2022-10-29T16:40:32.908Z,55.38
2022-10-29T16:43:00.793Z,60.60
2022-10-29T16:45:29.936Z,48.80
2022-10-29T16:47:57.819Z,55.17
2022-10-29T16:50:27.366Z,54.85
2022-10-29T16:53:01.382Z,53.83
2022-10-29T16:55:29.208Z,55.42
2022-10-29T16:57:56.992Z,52.15
2022-10-29T17:00:25.987Z,56.92
2022-10-29T17:02:53.698Z,58.08
2022-10-29T17:05:21.227Z,58.35
2022-10-29T17:07:48.553Z,55.78
2022-10-29T17:10:16.176Z,56.10
2022-10-29T17:12:43.488Z,57.88
2022-10-29T17:15:10.831Z,55.83
2022-10-29T17:17:41.073Z,55.08
2022-10-29T17:20:11.286Z,56.55
2022-10-29T17:22:38.935Z,61.10
2022-10-29T17:25:06.643Z,52.53
2022-10-29T17:27:33.952Z,60.45
2022-10-29T17:30:01.593Z,65.75
2022-10-29T17:32:32.550Z,57.92
2022-10-29T17:35:00.252Z,61.75
2022-10-29T17:37:27.878Z,54.42
2022-10-29T17:39:55.189Z,57.60
2022-10-29T17:42:22.546Z,59.30
2022-10-29T17:44:50.165Z,64.05
2022-10-29T17:47:17.468Z,61.42
2022-10-29T17:49:44.806Z,57.55
2022-10-29T17:52:12.440Z,57.75
2022-10-29T17:54:39.771Z,55.85
2022-10-29T17:57:07.109Z,56.97
2022-10-29T17:59:34.730Z,59.45
2022-10-29T18:02:02.166Z,62.33
2022-10-29T18:04:29.815Z,56.25
2022-10-29T18:06:57.197Z,58.47
2022-10-29T18:09:24.547Z,53.15
2022-10-29T18:11:52.168Z,56.00
2022-10-29T18:14:19.544Z,61.85
2022-10-29T18:16:46.915Z,54.10
2022-10-29T18:19:14.557Z,55.22
2022-10-29T18:21:41.891Z,55.38
2022-10-29T18:24:09.410Z,55.78
2022-10-29T18:26:36.996Z,58.90
2022-10-29T18:29:08.918Z,56.75
2022-10-29T18:31:36.621Z,53.50
2022-10-29T18:34:05.997Z,53.83
2022-10-29T18:36:35.647Z,51.47
2022-10-29T18:39:04.180Z,54.72
2022-10-29T18:41:31.528Z,55.35
2022-10-29T18:43:59.091Z,55.55
2022-10-29T18:46:26.769Z,52.88
2022-10-29T18:48:54.101Z,52.42
2022-10-29T18:51:29.297Z,52.97
2022-10-29T18:54:00.019Z,56.35
2022-10-29T18:56:28.098Z,58.17
2022-10-29T18:58:55.936Z,54.15
2022-10-29T19:01:25.067Z,59.55
2022-10-29T19:04:00.312Z,53.60
2022-10-29T19:06:29.309Z,50.35
2022-10-29T19:08:56.676Z,56.58
2022-10-29T19:11:27.566Z,52.42
2022-10-29T19:13:59.663Z,55.03
2022-10-29T19:16:27.289Z,52.20
2022-10-29T19:18:56.015Z,53.08
2022-10-29T19:21:23.421Z,57.08
2022-10-29T19:23:55.203Z,57.58
2022-10-29T19:26:22.825Z,57.47
2022-10-29T19:28:50.186Z,66.45
2022-10-29T19:31:22.491Z,64.60
2022-10-29T19:33:50.461Z,60.67
2022-10-29T19:36:17.902Z,58.63
2022-10-29T19:38:45.284Z,62.20
2022-10-29T19:41:13.021Z,63.65
2022-10-29T19:43:40.502Z,67.72
2022-10-29T19:46:08.792Z,58.72
2022-10-29T19:48:36.408Z,70.28
2022-10-29T19:51:03.815Z,62.42
2022-10-29T19:53:31.330Z,76.22
2022-10-29T19:55:58.964Z,73.57
2022-10-29T19:58:27.189Z,66.20
2022-10-29T20:00:54.827Z,72.65
2022-10-29T20:03:22.513Z,65.00
2022-10-29T20:05:49.874Z,66.75
2022-10-29T20:08:17.216Z,69.50
2022-10-29T20:10:44.807Z,67.20
2022-10-29T20:13:12.148Z,65.70
2022-10-29T20:15:40.132Z,68.60
2022-10-29T20:18:07.797Z,67.82
2022-10-29T20:20:35.171Z,68.00
2022-10-29T20:23:02.644Z,74.07
2022-10-29T20:25:30.403Z,66.05
2022-10-29T20:27:59.434Z,69.53
2022-10-29T20:30:26.741Z,73.43
2022-10-29T20:32:54.470Z,77.53
2022-10-29T20:35:22.205Z,75.93
2022-10-29T20:37:49.645Z,78.95
2022-10-29T20:40:17.299Z,81.55
2022-10-29T20:42:44.709Z,86.95
2022-10-29T20:45:12.065Z,81.95
2022-10-29T20:47:39.693Z,78.53
2022-10-29T20:50:07.281Z,77.62
2022-10-29T20:52:34.595Z,80.55
2022-10-29T20:55:02.160Z,82.20
2022-10-29T20:57:29.602Z,89.28
2022-10-29T20:59:58.472Z,89.53
2022-10-29T21:02:26.130Z,89.03
2022-10-29T21:04:53.543Z,93.10
2022-10-29T21:07:20.953Z,88.28
2022-10-29T21:09:48.569Z,97.25
2022-10-29T21:12:15.920Z,91.15
2022-10-29T21:14:43.251Z,94.72
2022-10-29T21:17:11.181Z,87.37
2022-10-29T21:19:38.506Z,87.57
2022-10-29T21:22:05.927Z,84.30
2022-10-29T21:24:33.572Z,92.05
2022-10-29T21:27:00.923Z,93.72
2022-10-29T21:29:28.256Z,87.05
2022-10-29T21:31:55.830Z,91.00
2022-10-29T21:34:23.160Z,90.75
2022-10-29T21:36:50.508Z,84.47
2022-10-29T21:39:18.112Z,97.28
2022-10-29T21:41:45.462Z,91.85
2022-10-29T21:44:12.816Z,99.78
2022-10-29T21:46:40.691Z,94.57
2022-10-29T21:49:08.020Z,82.93
2022-10-29T21:51:35.330Z,90.82
2022-10-29T21:54:02.933Z,84.25
2022-10-29T21:56:30.378Z,102.12
2022-10-29T21:58:57.754Z,101.60
2022-10-29T22:01:25.425Z,100.38
2022-10-29T22:03:53.074Z,103.22
2022-10-29T22:06:21.434Z,109.37
2022-10-29T22:08:53.912Z,103.90
2022-10-29T22:11:21.715Z,107.28
2022-10-29T22:13:48.986Z,99.10
2022-10-29T22:16:16.243Z,106.93
2022-10-29T22:18:44.275Z,93.25
2022-10-29T22:21:12.485Z,94.57
2022-10-29T22:23:47.022Z,82.80
2022-10-29T22:26:15.611Z,86.87
2022-10-29T22:28:43.007Z,87.82
2022-10-29T22:31:10.727Z,91.22
2022-10-29T22:33:38.262Z,89.43
2022-10-29T22:36:06.511Z,90.95
2022-10-29T22:38:33.801Z,88.47
2022-10-29T22:41:08.818Z,87.53
2022-10-29T22:43:36.271Z,97.03
2022-10-29T22:46:04.011Z,90.35
2022-10-29T22:48:31.380Z,88.97
2022-10-29T22:51:02.703Z,72.93
2022-10-29T22:53:30.637Z,78.60
2022-10-29T22:55:58.047Z,82.22
2022-10-29T22:58:25.582Z,74.18
2022-10-29T23:01:03.596Z,71.75
2022-10-29T23:03:30.952Z,75.20
2022-10-29T23:06:02.678Z,72.65
2022-10-29T23:08:30.043Z,69.87
2022-10-29T23:10:57.345Z,76.50
2022-10-29T23:13:24.951Z,70.40
2022-10-29T23:15:52.773Z,89.18
2022-10-29T23:18:20.118Z,76.32
2022-10-29T23:20:47.765Z,65.93
2022-10-29T23:23:15.105Z,78.47
2022-10-29T23:25:42.890Z,74.62
2022-10-29T23:28:10.476Z,77.18
2022-10-29T23:30:37.803Z,88.90
2022-10-29T23:33:05.110Z,77.28
2022-10-29T23:35:34.807Z,80.35
2022-10-29T23:38:02.141Z,88.78
2022-10-29T23:40:29.443Z,93.18
2022-10-29T23:42:57.037Z,90.93
2022-10-29T23:45:24.365Z,81.97
2022-10-29T23:47:51.679Z,77.95
2022-10-29T23:50:19.276Z,89.68
2022-10-29T23:52:46.622Z,91.97
2022-10-29T23:55:14.015Z,97.18
2022-10-29T23:57:41.634Z,92.57
